Portada
METAR-TAF:

METAR-TAF

Aeropuertos :

Aeropuerto Internacional Bonriki

Tarawa, Kiribati

latitud: 01-21N, longitud: 172-55E, altitud: 2 m

Observación

El informe se hizo hace 40 minutos, a las 10:00 UTC
Viento 4 kt del este-noreste
Temperatura 28°C
Humedad 79%
Presión 1010 hPa
Visibilidad 10 km o más
Escasas nubes a una altura de 1800 ft, Cumulus congestus.

METAR: NGTA 201000Z 07004KT 9999 FEW018TCU 28/24 Q1010

Hora: 00:40 (10:40 UTC)

Pronóstico

El informe se hizo hace 5 horas y 25 minutos, a las 05:15 UTC
Pronóstico válido del 20 a las 06 UTC al 21 a las 06 UTC
Viento 8 kt del este
Visibilidad 10 km o más
Nubes dispersas a una altura de 1800 ft
Nubes dispersas a una altura de 10000 ft

TAF: NGTA 200515Z 2006/2106 08008KT 9999 SCT018 SCT100

Observaciones y pronósticos meteorológicos de más de 4000 aeropuertos (mensajes METAR y TAF).

Los puntos amarillos y rojos representan las estaciones disponibles.

Ponga el ratón en el punto deseado para ver el nombre de la estación.

Haga clic para ver las observaciones y los pronósticos meteorológicos.

Para cambiar el mapa : haga clic en los botones verdes con una cruz de color negro para hacer un zoom, en el botón verde con un guión para alejar o en las flechas verdes para mapas adyacentes.


METAR-TAF: